Terminal Aerodrome Forecast
Issued by NWS

Home | Current Version | Previous Version | Text Only | Print | Product List | Glossary On
Versions: 1 2 3 4 5 6 7 8 9 10 11 12 13 14 15 16 17 18 19 20 21 22 23
000
FTUS41 KGYX 210534
TAFPSM
TAF
KPSM 210534Z 2106/2206 12010KT 1 1/2SM -SHRA BR OVC004
      WS020/14055KT
     FM211000 11013KT 3SM -TSRA BR OVC007CB
     FM211200 10007KT P6SM BKN008 OVC012
     FM211600 23008KT P6SM BKN040
     FM220000 26005KT P6SM SKC=

USA.gov is the U.S. government's official web portal to all federal, state and local government web resources and services.